Time;durP1;ratioP1;P1;durP2;ratioP2;P2;SDS_P1;SDS_P2;PMS_P1;PMS_P2;Temp;Humidity;BMP_temperature;BMP_pressure;BME280_temperature;BME280_humidity;BME280_pressure;Samples;Min_cycle;Max_cycle;Signal;HPM_P1;HPM_P2
2021/09/02 00:01:40;;;;;;;4.57;1.73;;;24.10;99.90;;;;;;6263112;23;20191;-94
2021/09/02 00:04:15;;;;;;;2.80;1.70;;;23.90;99.90;;;;;;6264310;23;20176;-95
2021/09/02 00:06:47;;;;;;;2.07;1.73;;;23.90;99.90;;;;;;6262320;23;20176;-91
2021/09/02 00:09:20;;;;;;;2.03;1.50;;;24.00;99.90;;;;;;6271801;22;20206;-93
2021/09/02 00:11:52;;;;;;;2.60;1.43;;;23.90;99.90;;;;;;6272198;22;20234;-94
2021/09/02 00:14:25;;;;;;;2.70;1.40;;;24.00;99.90;;;;;;6272411;22;20156;-93
2021/09/02 00:17:01;;;;;;;2.80;1.60;;;24.00;99.90;;;;;;6269163;23;20159;-95
2021/09/02 00:25:00;;;;;;;2.27;1.37;;;23.80;99.90;;;;;;6244691;22;20219;-95
2021/09/02 00:27:32;;;;;;;2.37;1.47;;;23.80;99.90;;;;;;6232647;23;20267;-95
2021/09/02 00:30:10;;;;;;;5.97;1.73;;;23.70;99.90;;;;;;6232303;23;20197;-93
2021/09/02 00:32:40;;;;;;;1.83;1.40;;;23.70;99.90;;;;;;6233348;23;20176;-93
2021/09/02 00:35:16;;;;;;;3.00;1.50;;;23.80;99.90;;;;;;6238187;23;20176;-93
2021/09/02 00:37:48;;;;;;;2.30;1.60;;;23.70;99.90;;;;;;6231488;23;20176;-94
2021/09/02 00:40:23;;;;;;;3.27;1.57;;;23.70;99.90;;;;;;6231536;23;20188;-96
2021/09/02 00:42:54;;;;;;;2.63;1.70;;;23.60;99.90;;;;;;6233652;23;20238;-94
2021/09/02 00:45:25;;;;;;;2.83;1.60;;;23.50;99.90;;;;;;6235894;23;20179;-92
2021/09/02 00:47:58;;;;;;;5.93;1.90;;;23.50;99.90;;;;;;6233273;23;20172;-92
2021/09/02 00:50:31;;;;;;;1.77;1.30;;;23.50;99.90;;;;;;6222970;23;20196;-91
2021/09/02 00:53:03;;;;;;;4.67;1.77;;;23.50;99.90;;;;;;6223022;23;20173;-92
2021/09/02 00:55:36;;;;;;;4.80;1.60;;;23.40;99.90;;;;;;6222384;23;20192;-93
2021/09/02 00:58:08;;;;;;;2.20;1.60;;;23.50;99.90;;;;;;6231107;23;20188;-92
2021/09/02 01:00:41;;;;;;;1.90;1.30;;;23.50;99.90;;;;;;6228650;23;20195;-94
2021/09/02 01:03:12;;;;;;;2.67;1.40;;;23.40;99.90;;;;;;6234646;23;20176;-94
2021/09/02 01:05:44;;;;;;;3.97;1.70;;;23.30;99.90;;;;;;6235438;23;20168;-95
2021/09/02 01:08:18;;;;;;;3.93;1.80;;;23.10;99.90;;;;;;6236388;23;20188;-95
2021/09/02 01:10:52;;;;;;;2.10;1.37;;;23.00;99.90;;;;;;6235885;23;20204;-95
2021/09/02 01:13:24;;;;;;;3.93;1.73;;;22.90;99.90;;;;;;6234317;23;20200;-93
2021/09/02 01:18:39;;;;;;;5.03;1.70;;;22.80;99.90;;;;;;6233517;22;20286;-95
2021/09/02 01:24:13;;;;;;;3.10;1.70;;;23.00;99.90;;;;;;5039606;27;3274013;-95
2021/09/02 01:29:24;;;;;;;2.23;1.40;;;22.80;99.90;;;;;;5560436;22;20238;-94
2021/09/02 01:31:58;;;;;;;3.00;1.60;;;22.40;99.90;;;;;;5091809;28;20196;-93
2021/09/02 01:34:29;;;;;;;2.67;1.50;;;21.90;99.90;;;;;;5083119;28;20286;-95
2021/09/02 01:37:01;;;;;;;2.40;1.40;;;21.50;99.90;;;;;;5074158;28;20207;-95
2021/09/02 01:39:34;;;;;;;3.20;1.50;;;21.20;99.90;;;;;;5075990;28;21009;-95
2021/09/02 01:42:06;;;;;;;3.13;1.50;;;21.00;99.90;;;;;;5074205;28;20226;-96
2021/09/02 01:44:38;;;;;;;1.83;1.30;;;20.90;99.90;;;;;;5073601;28;20322;-95
2021/09/02 01:47:24;;;;;;;3.33;1.53;;;20.70;99.90;;;;;;5074076;28;20573;-95
2021/09/02 01:49:56;;;;;;;2.03;1.50;;;20.50;99.90;;;;;;5074314;28;20294;-95
2021/09/02 01:52:28;;;;;;;3.30;1.50;;;20.50;99.90;;;;;;5084753;28;20203;-96
2021/09/02 01:55:03;;;;;;;2.27;1.70;;;20.30;99.90;;;;;;5077153;28;20206;-96
2021/09/02 01:57:36;;;;;;;1.70;1.30;;;20.20;99.90;;;;;;5079755;28;20234;-96
2021/09/02 02:00:09;;;;;;;4.53;1.80;;;20.10;99.90;;;;;;5084863;28;20204;-96
2021/09/02 02:02:41;;;;;;;3.87;2.20;;;20.10;99.90;;;;;;5072910;28;20700;-95
2021/09/02 02:05:13;;;;;;;3.10;1.90;;;19.90;99.90;;;;;;5075147;28;20211;-92
2021/09/02 02:07:44;;;;;;;2.07;1.70;;;19.90;99.90;;;;;;5060653;28;20225;-96
2021/09/02 02:10:22;;;;;;;3.07;1.87;;;19.90;99.90;;;;;;5061786;28;20250;-95
2021/09/02 02:12:53;;;;;;;4.70;1.97;;;19.80;99.90;;;;;;5081497;28;20226;-96
2021/09/02 02:15:28;;;;;;;2.50;1.70;;;19.70;99.90;;;;;;5084630;28;20246;-96
2021/09/02 02:18:00;;;;;;;2.37;1.50;;;19.60;99.90;;;;;;5087927;28;20204;-95
2021/09/02 02:20:32;;;;;;;5.70;1.70;;;19.50;99.90;;;;;;5076636;28;20243;-95
2021/09/02 02:23:04;;;;;;;4.10;1.90;;;19.40;99.90;;;;;;5188085;22;20271;-93
2021/09/02 02:25:39;;;;;;;3.20;1.77;;;19.40;99.90;;;;;;5154377;22;20267;-93
2021/09/02 02:28:10;;;;;;;3.10;2.03;;;19.20;99.90;;;;;;5092713;28;20184;-93
2021/09/02 02:30:41;;;;;;;3.20;1.80;;;19.10;99.90;;;;;;5056654;28;20200;-93
2021/09/02 02:33:13;;;;;;;3.60;1.97;;;19.00;99.90;;;;;;5072552;28;20201;-96
2021/09/02 02:35:44;;;;;;;2.70;1.80;;;18.80;99.90;;;;;;5059386;28;20193;-94
2021/09/02 02:38:17;;;;;;;2.57;1.90;;;18.80;99.90;;;;;;5061746;28;20212;-95
2021/09/02 02:40:51;;;;;;;6.17;2.60;;;18.70;99.90;;;;;;5063112;28;20601;-95
2021/09/02 02:43:23;;;;;;;3.43;1.93;;;18.60;99.90;;;;;;5065461;28;20232;-94
2021/09/02 02:45:57;;;;;;;3.97;2.07;;;18.50;99.90;;;;;;5066457;28;20200;-95
2021/09/02 02:48:29;;;;;;;5.63;2.37;;;18.40;99.90;;;;;;5066600;28;20234;-96
2021/09/02 02:51:00;;;;;;;4.03;2.23;;;18.30;99.90;;;;;;5059179;28;20279;-95
2021/09/02 02:53:32;;;;;;;5.87;2.70;;;18.20;99.90;;;;;;5072193;28;20596;-95
2021/09/02 02:56:05;;;;;;;4.73;2.17;;;18.10;99.90;;;;;;5061766;28;20202;-95
2021/09/02 02:58:37;;;;;;;3.43;2.10;;;18.00;99.90;;;;;;5048186;28;20288;-95
2021/09/02 03:01:10;;;;;;;4.13;2.33;;;17.90;99.90;;;;;;5053238;28;20230;-95
2021/09/02 03:03:42;;;;;;;5.10;2.33;;;17.80;99.90;;;;;;5060151;28;20224;-94
2021/09/02 03:06:15;;;;;;;5.60;2.47;;;17.60;99.90;;;;;;5050224;28;20239;-95
2021/09/02 03:08:46;;;;;;;4.60;2.00;;;17.50;99.90;;;;;;5060575;28;20280;-95
2021/09/02 03:11:19;;;;;;;7.30;2.40;;;17.40;99.90;;;;;;5061737;28;20231;-95
2021/09/02 03:13:52;;;;;;;5.70;2.40;;;17.40;99.90;;;;;;5060492;28;20192;-96
2021/09/02 03:16:39;;;;;;;5.30;2.40;;;17.30;99.90;;;;;;5071338;28;20283;-95
2021/09/02 03:19:11;;;;;;;3.47;2.03;;;17.20;99.90;;;;;;5057250;28;20736;-94
2021/09/02 03:21:42;;;;;;;2.90;2.10;;;17.10;99.90;;;;;;5051932;28;20236;-93
2021/09/02 03:24:13;;;;;;;5.27;2.37;;;17.00;99.90;;;;;;5058750;28;20286;-95
2021/09/02 03:26:58;;;;;;;2.60;1.80;;;16.90;99.90;;;;;;5063159;28;20611;-95
2021/09/02 03:29:31;;;;;;;4.40;2.53;;;16.80;99.90;;;;;;5050410;28;20199;-96
2021/09/02 03:32:08;;;;;;;5.13;2.70;;;16.60;99.90;;;;;;5055221;28;20258;-95
2021/09/02 03:34:40;;;;;;;3.83;2.50;;;16.60;99.90;;;;;;5052355;28;20209;-95
2021/09/02 03:37:11;;;;;;;5.70;2.27;;;16.50;99.90;;;;;;5069285;28;20207;-96
2021/09/02 03:39:42;;;;;;;4.10;2.57;;;16.40;99.90;;;;;;5077957;28;20188;-95
2021/09/02 03:42:17;;;;;;;5.70;2.20;;;16.30;99.90;;;;;;5077857;28;20185;-96
2021/09/02 03:44:50;;;;;;;3.20;2.23;;;16.20;99.90;;;;;;5077841;28;20215;-94
2021/09/02 03:47:21;;;;;;;6.80;2.30;;;16.10;99.90;;;;;;5061449;28;20223;-94
2021/09/02 03:49:53;;;;;;;5.33;2.60;;;16.00;99.90;;;;;;5062804;28;20576;-96
2021/09/02 03:52:28;;;;;;;4.63;2.30;;;16.00;99.90;;;;;;5072407;28;20195;-96
2021/09/02 03:54:59;;;;;;;4.20;2.33;;;15.90;99.90;;;;;;5058055;28;20195;-95
2021/09/02 03:57:34;;;;;;;10.20;2.67;;;15.90;99.90;;;;;;5068729;28;20244;-96
2021/09/02 04:00:06;;;;;;;6.97;2.43;;;15.80;99.90;;;;;;5074642;28;20274;-96
2021/09/02 04:02:38;;;;;;;3.80;2.30;;;15.80;99.90;;;;;;5065443;28;20295;-95
2021/09/02 04:05:14;;;;;;;3.87;2.40;;;15.70;99.90;;;;;;5068459;28;20230;-96
2021/09/02 04:07:49;;;;;;;6.43;3.03;;;15.60;99.90;;;;;;5052390;28;20252;-96
2021/09/02 04:10:21;;;;;;;5.37;2.47;;;15.60;99.90;;;;;;5050369;28;20255;-96
2021/09/02 04:12:56;;;;;;;5.83;2.40;;;15.50;99.90;;;;;;5048747;28;20232;-96
2021/09/02 04:15:31;;;;;;;5.07;2.60;;;15.50;99.90;;;;;;5064460;28;20230;-96
2021/09/02 04:18:07;;;;;;;3.23;2.20;;;15.40;99.90;;;;;;5077182;28;20256;-95
2021/09/02 04:20:38;;;;;;;4.90;2.57;;;15.40;99.90;;;;;;5076471;28;20184;-93
2021/09/02 04:23:10;;;;;;;5.77;2.50;;;15.30;99.90;;;;;;5076015;28;20207;-96
2021/09/02 04:25:41;;;;;;;3.83;2.40;;;15.30;99.90;;;;;;5088429;28;20223;-96
2021/09/02 04:28:15;;;;;;;4.33;2.67;;;15.20;99.90;;;;;;5065517;28;20208;-96
2021/09/02 04:30:46;;;;;;;4.77;2.60;;;15.20;99.90;;;;;;5062761;28;20204;-96
2021/09/02 04:33:19;;;;;;;5.57;2.50;;;15.20;99.90;;;;;;5061495;28;20219;-96
2021/09/02 04:35:50;;;;;;;4.63;2.73;;;15.20;99.90;;;;;;5062192;28;20212;-96
2021/09/02 04:38:22;;;;;;;6.33;2.50;;;15.20;99.90;;;;;;5062659;28;20236;-96
2021/09/02 04:40:54;;;;;;;4.23;2.37;;;15.20;99.90;;;;;;5060556;28;20232;-96
2021/09/02 04:43:28;;;;;;;4.97;2.43;;;15.20;99.90;;;;;;5068926;28;20208;-96
2021/09/02 04:45:59;;;;;;;5.27;2.70;;;15.10;99.90;;;;;;5069888;28;20208;-96
2021/09/02 04:48:30;;;;;;;6.40;3.00;;;15.10;99.90;;;;;;5074302;28;20594;-96
2021/09/02 04:51:03;;;;;;;6.57;2.90;;;15.10;99.90;;;;;;5073465;28;20207;-96
2021/09/02 04:53:34;;;;;;;4.47;2.63;;;15.00;99.90;;;;;;5067049;28;20232;-96
2021/09/02 04:56:05;;;;;;;3.63;2.30;;;15.00;99.90;;;;;;5061275;28;20204;-96
2021/09/02 04:58:39;;;;;;;4.57;2.60;;;15.00;99.90;;;;;;5060660;28;20212;-96
2021/09/02 05:01:10;;;;;;;4.17;2.67;;;14.90;99.90;;;;;;5052805;28;20254;-96
2021/09/02 05:03:42;;;;;;;4.17;2.27;;;14.90;99.90;;;;;;5068570;28;20219;-96
2021/09/02 05:06:14;;;;;;;4.87;3.07;;;14.90;99.90;;;;;;5059416;28;20208;-96
2021/09/02 05:08:45;;;;;;;5.53;2.80;;;14.80;99.90;;;;;;5064562;28;20213;-96
2021/09/02 05:11:16;;;;;;;3.87;2.77;;;14.80;99.90;;;;;;5064239;28;20208;-96
2021/09/02 05:13:50;;;;;;;4.43;3.07;;;14.80;99.90;;;;;;5058362;28;20291;-96
2021/09/02 05:16:21;;;;;;;4.13;2.37;;;14.70;99.90;;;;;;5059271;28;20208;-96
2021/09/02 05:18:52;;;;;;;4.97;3.07;;;14.60;99.90;;;;;;5058939;28;20210;-96
2021/09/02 05:21:23;;;;;;;5.87;3.00;;;14.60;99.90;;;;;;5058507;28;20250;-96
2021/09/02 05:23:54;;;;;;;8.33;2.83;;;14.60;99.90;;;;;;5059102;28;20238;-96
2021/09/02 05:26:26;;;;;;;5.07;2.83;;;14.50;99.90;;;;;;5053815;28;20567;-96
2021/09/02 05:29:01;;;;;;;7.03;2.50;;;14.50;99.90;;;;;;5037745;28;20300;-96
2021/09/02 05:31:35;;;;;;;6.10;3.20;;;14.50;99.90;;;;;;5039428;28;20250;-96
2021/09/02 05:34:06;;;;;;;5.90;2.90;;;14.40;99.90;;;;;;5053920;28;20240;-96
2021/09/02 05:36:38;;;;;;;4.03;2.87;;;14.40;99.90;;;;;;5058378;28;20250;-96
2021/09/02 05:39:10;;;;;;;5.03;3.00;;;14.30;99.90;;;;;;5059899;28;20224;-96
2021/09/02 05:41:41;;;;;;;5.33;3.00;;;14.20;99.90;;;;;;5060676;28;20208;-96
2021/09/02 05:44:14;;;;;;;8.97;3.20;;;14.10;99.90;;;;;;5058549;28;20324;-96
2021/09/02 05:46:46;;;;;;;5.33;2.80;;;14.20;99.90;;;;;;5060878;28;20234;-96
2021/09/02 05:49:17;;;;;;;7.90;2.97;;;14.20;99.90;;;;;;5061943;28;20558;-96
2021/09/02 05:51:49;;;;;;;4.50;2.60;;;14.10;99.90;;;;;;5059415;28;20303;-96
2021/09/02 05:54:20;;;;;;;5.30;2.90;;;14.10;99.90;;;;;;5059062;28;20246;-96
2021/09/02 05:56:53;;;;;;;4.40;2.70;;;14.00;99.90;;;;;;5058189;28;20243;-95
2021/09/02 05:59:26;;;;;;;5.33;2.80;;;13.90;99.90;;;;;;5059308;28;20653;-93
2021/09/02 06:01:57;;;;;;;6.33;3.27;;;13.90;99.90;;;;;;5057036;28;20216;-95
2021/09/02 06:04:29;;;;;;;4.27;2.80;;;13.90;99.90;;;;;;5057147;28;20208;-95
2021/09/02 06:07:01;;;;;;;5.50;3.03;;;13.80;99.90;;;;;;5067133;28;20235;-95
2021/09/02 06:09:32;;;;;;;3.80;2.93;;;13.80;99.90;;;;;;5067166;28;20259;-94
2021/09/02 06:12:03;;;;;;;6.23;2.73;;;13.70;99.90;;;;;;5066956;28;20211;-96
2021/09/02 06:14:37;;;;;;;6.30;3.00;;;13.70;99.90;;;;;;5070816;28;20244;-96
2021/09/02 06:17:09;;;;;;;5.70;3.10;;;13.70;99.90;;;;;;5066635;28;20582;-96
2021/09/02 06:19:42;;;;;;;6.60;3.00;;;13.70;99.90;;;;;;5070259;28;20212;-96
2021/09/02 06:22:26;;;;;;;5.63;2.47;;;13.70;99.90;;;;;;5070743;28;20263;-96
2021/09/02 06:24:58;;;;;;;5.87;3.00;;;13.70;99.90;;;;;;5059194;28;20208;-96
2021/09/02 06:27:30;;;;;;;7.17;3.00;;;13.70;99.90;;;;;;5040942;28;20205;-95
2021/09/02 06:30:04;;;;;;;5.23;2.80;;;13.70;99.90;;;;;;5039478;28;20266;-94
2021/09/02 06:32:36;;;;;;;4.83;2.80;;;13.80;99.90;;;;;;5040284;28;20210;-96
2021/09/02 06:35:08;;;;;;;4.43;2.50;;;13.80;99.90;;;;;;5041085;28;20240;-95
2021/09/02 06:37:39;;;;;;;5.87;2.93;;;13.80;99.90;;;;;;5041323;28;20236;-96
2021/09/02 06:40:13;;;;;;;4.33;2.70;;;13.80;99.90;;;;;;5039761;28;20197;-95
2021/09/02 06:42:45;;;;;;;3.43;2.63;;;13.80;99.90;;;;;;5040649;28;20610;-95
2021/09/02 06:45:20;;;;;;;5.63;2.70;;;13.80;99.90;;;;;;5040400;28;20304;-96
2021/09/02 06:47:51;;;;;;;6.87;2.77;;;13.80;99.90;;;;;;5040629;28;20250;-94
2021/09/02 06:50:22;;;;;;;3.97;2.60;;;13.70;99.90;;;;;;5039917;28;20213;-96
2021/09/02 06:52:54;;;;;;;3.53;2.43;;;13.70;99.90;;;;;;5040382;28;20300;-95
2021/09/02 06:55:26;;;;;;;5.73;2.80;;;13.70;99.90;;;;;;5049252;28;20237;-95
2021/09/02 06:58:05;;;;;;;4.37;2.67;;;13.70;99.90;;;;;;5065055;28;20208;-94
2021/09/02 07:00:39;;;;;;;6.53;2.70;;;13.70;99.90;;;;;;5060712;28;20239;-93
2021/09/02 07:03:11;;;;;;;4.17;2.40;;;13.70;99.90;;;;;;5069695;28;20272;-94
2021/09/02 07:05:43;;;;;;;4.40;2.83;;;13.70;99.90;;;;;;5079135;28;20192;-93
2021/09/02 07:08:14;;;;;;;5.80;2.70;;;13.70;99.90;;;;;;5058722;28;20192;-94
2021/09/02 07:10:47;;;;;;;5.20;2.70;;;13.60;99.90;;;;;;5046959;28;20262;-94
2021/09/02 07:13:18;;;;;;;8.30;3.30;;;13.50;99.90;;;;;;5041368;28;20232;-94
2021/09/02 07:15:51;;;;;;;7.73;3.20;;;13.50;99.90;;;;;;5056604;28;20248;-94
2021/09/02 07:18:23;;;;;;;4.47;2.60;;;13.40;99.90;;;;;;5062573;28;20344;-94
2021/09/02 07:20:55;;;;;;;4.27;2.63;;;13.40;99.90;;;;;;5058953;28;20200;-95
2021/09/02 07:23:26;;;;;;;6.77;2.90;;;13.30;99.90;;;;;;5059382;28;20267;-95
2021/09/02 07:25:58;;;;;;;4.97;2.50;;;13.40;99.90;;;;;;5059334;28;20277;-94
2021/09/02 07:28:30;;;;;;;4.57;2.77;;;13.40;99.90;;;;;;5060161;28;20212;-96
2021/09/02 07:31:04;;;;;;;4.17;3.10;;;13.40;99.90;;;;;;5071487;28;20207;-94
2021/09/02 07:33:36;;;;;;;7.50;2.60;;;13.30;99.90;;;;;;5067674;28;20216;-96
2021/09/02 07:36:08;;;;;;;3.80;2.77;;;13.30;99.90;;;;;;5069455;28;20246;-95
2021/09/02 07:38:39;;;;;;;6.10;2.80;;;13.30;99.90;;;;;;5044004;28;20209;-96
2021/09/02 07:41:11;;;;;;;7.20;3.30;;;13.30;99.90;;;;;;5051189;28;20205;-95
2021/09/02 07:43:42;;;;;;;6.43;2.70;;;13.30;99.90;;;;;;5060267;28;20231;-95
2021/09/02 07:46:16;;;;;;;6.13;4.00;;;13.20;99.90;;;;;;5060570;28;20269;-95
2021/09/02 07:48:47;;;;;;;6.23;2.80;;;13.20;99.90;;;;;;5062177;28;20212;-96
2021/09/02 07:51:19;;;;;;;5.00;2.90;;;13.10;99.90;;;;;;5060795;28;20299;-96
2021/09/02 07:53:50;;;;;;;6.37;3.10;;;13.00;99.90;;;;;;5060794;28;20217;-96
2021/09/02 07:56:22;;;;;;;5.10;3.00;;;13.00;99.90;;;;;;5059938;28;20262;-96
2021/09/02 07:58:55;;;;;;;4.30;3.00;;;12.90;99.90;;;;;;5060752;28;20276;-95
2021/09/02 08:01:29;;;;;;;8.23;3.13;;;12.90;99.90;;;;;;5074989;28;20205;-94
2021/09/02 08:04:01;;;;;;;5.27;2.97;;;12.80;99.90;;;;;;5078476;28;20255;-96
2021/09/02 08:06:32;;;;;;;5.00;2.80;;;12.70;99.90;;;;;;5077917;28;20200;-94
2021/09/02 08:09:03;;;;;;;4.03;2.80;;;12.70;99.90;;;;;;5077974;28;20196;-95
2021/09/02 08:11:35;;;;;;;4.70;3.17;;;12.60;99.90;;;;;;5077118;28;20195;-95
2021/09/02 08:14:06;;;;;;;8.63;3.47;;;12.60;99.90;;;;;;5067959;28;20232;-95
2021/09/02 08:16:39;;;;;;;4.47;2.87;;;12.60;99.90;;;;;;5064111;28;20315;-95
2021/09/02 08:19:10;;;;;;;5.50;3.13;;;12.50;99.90;;;;;;5058595;28;20294;-96
2021/09/02 08:21:42;;;;;;;6.20;2.97;;;12.50;99.90;;;;;;5057463;28;20208;-96
2021/09/02 08:24:14;;;;;;;4.03;2.60;;;12.50;99.90;;;;;;5057668;28;20204;-96
2021/09/02 08:26:46;;;;;;;3.37;2.77;;;12.50;99.90;;;;;;5058169;28;20306;-95
2021/09/02 08:29:18;;;;;;;7.50;3.13;;;12.40;99.90;;;;;;5058484;28;20200;-95
2021/09/02 08:31:51;;;;;;;4.93;3.00;;;12.40;99.90;;;;;;5057558;28;20208;-96
2021/09/02 08:34:22;;;;;;;5.17;2.90;;;12.40;99.90;;;;;;5058864;28;20228;-96
2021/09/02 08:36:53;;;;;;;5.00;2.90;;;12.40;99.90;;;;;;5057898;28;20236;-96
2021/09/02 08:39:25;;;;;;;5.30;2.67;;;12.40;99.90;;;;;;5057519;28;20327;-95
2021/09/02 08:41:57;;;;;;;5.73;3.17;;;12.30;99.90;;;;;;5057881;28;20236;-95
2021/09/02 08:44:30;;;;;;;5.47;3.30;;;12.30;99.90;;;;;;5059192;28;20204;-94
2021/09/02 08:47:04;;;;;;;8.87;3.50;;;12.20;99.90;;;;;;5060216;28;20246;-95
2021/09/02 08:49:35;;;;;;;3.47;2.90;;;12.20;99.90;;;;;;5061429;28;20223;-96
2021/09/02 08:52:07;;;;;;;8.37;3.53;;;12.20;99.90;;;;;;5041574;28;20208;-95
2021/09/02 08:54:38;;;;;;;5.17;2.90;;;12.20;99.90;;;;;;5043389;28;20213;-95
2021/09/02 08:57:09;;;;;;;4.77;2.77;;;12.20;99.90;;;;;;5056660;28;20200;-96
2021/09/02 08:59:40;;;;;;;5.70;3.03;;;12.20;99.90;;;;;;5058879;28;20180;-96
2021/09/02 09:02:33;;;;;;;6.37;3.23;;;12.20;99.90;;;;;;5056229;28;20203;-94
2021/09/02 09:05:07;;;;;;;3.73;2.73;;;12.20;99.90;;;;;;5057559;28;20216;-94
2021/09/02 09:07:40;;;;;;;6.33;3.00;;;12.10;99.90;;;;;;5057921;28;20220;-93
2021/09/02 09:10:15;;;;;;;5.60;2.90;;;12.20;99.90;;;;;;5063045;28;20573;-94
2021/09/02 09:12:52;;;;;;;5.43;2.70;;;12.10;99.90;;;;;;5058033;28;20214;-93
2021/09/02 09:15:24;;;;;;;7.27;3.20;;;12.20;99.90;;;;;;5057830;28;20223;-93
2021/09/02 09:18:14;;;;;;;4.77;2.87;;;12.10;99.90;;;;;;5057637;28;20232;-94
2021/09/02 09:20:45;;;;;;;5.07;3.00;;;12.20;99.90;;;;;;5057005;28;20205;-94
2021/09/02 09:23:17;;;;;;;4.43;2.87;;;12.20;99.90;;;;;;5057826;28;20239;-93
2021/09/02 09:26:11;;;;;;;6.53;2.83;;;12.20;99.90;;;;;;5061570;28;20236;-95
2021/09/02 09:28:42;;;;;;;4.93;2.83;;;12.10;99.90;;;;;;5061903;28;20196;-95
2021/09/02 09:31:27;;;;;;;3.27;2.70;;;12.10;99.90;;;;;;5055498;28;20268;-94
2021/09/02 09:34:03;;;;;;;5.93;2.90;;;12.10;99.90;;;;;;5043936;28;20665;-95
2021/09/02 09:36:36;;;;;;;4.10;3.00;;;12.10;99.90;;;;;;5047079;28;20256;-96
2021/09/02 09:39:09;;;;;;;3.63;2.60;;;12.00;99.90;;;;;;5051948;28;20193;-96
2021/09/02 09:41:42;;;;;;;4.70;2.80;;;12.00;99.90;;;;;;5055938;28;20202;-95
2021/09/02 09:44:21;;;;;;;4.33;3.07;;;12.00;99.90;;;;;;5057974;28;20206;-95
2021/09/02 09:47:11;;;;;;;5.50;3.00;;;12.00;99.90;;;;;;5061029;28;20216;-96
2021/09/02 09:49:57;;;;;;;3.43;2.83;;;12.00;99.90;;;;;;5053083;28;20208;-95
2021/09/02 09:52:31;;;;;;;6.97;2.90;;;11.90;99.90;;;;;;5059602;28;20259;-95
2021/09/02 09:55:08;;;;;;;4.77;2.70;;;11.90;99.90;;;;;;5052025;28;20264;-96
2021/09/02 09:57:40;;;;;;;5.63;3.30;;;11.90;99.90;;;;;;5046447;28;20262;-96
2021/09/02 10:00:14;;;;;;;4.43;2.83;;;11.90;99.90;;;;;;5041903;28;20264;-96
2021/09/02 10:02:47;;;;;;;4.27;2.77;;;11.80;99.90;;;;;;5040473;28;20658;-96
2021/09/02 10:05:22;;;;;;;4.23;2.97;;;11.80;99.90;;;;;;5041128;28;20205;-95
2021/09/02 10:07:56;;;;;;;4.10;2.87;;;11.80;99.90;;;;;;5041288;28;20287;-95
2021/09/02 10:10:30;;;;;;;6.97;3.17;;;11.80;99.90;;;;;;5040301;28;20284;-95
2021/09/02 10:13:04;;;;;;;5.73;3.00;;;11.80;99.90;;;;;;5040876;28;20240;-94
2021/09/02 10:15:35;;;;;;;4.33;3.10;;;11.80;99.90;;;;;;5040686;28;20232;-96
2021/09/02 10:18:06;;;;;;;7.57;2.90;;;11.70;99.90;;;;;;5040424;28;20244;-95
2021/09/02 10:20:42;;;;;;;5.10;3.07;;;11.70;99.90;;;;;;5039891;28;20232;-95
2021/09/02 10:23:14;;;;;;;3.57;2.93;;;11.70;99.90;;;;;;5040397;28;20288;-96
2021/09/02 10:25:46;;;;;;;5.50;3.00;;;11.70;99.90;;;;;;5048610;28;20213;-96
2021/09/02 10:28:26;;;;;;;3.27;2.43;;;11.60;99.90;;;;;;5060669;28;20274;-96
2021/09/02 10:30:59;;;;;;;4.43;2.97;;;11.60;99.90;;;;;;5059588;28;20326;-95
2021/09/02 10:33:42;;;;;;;3.97;2.70;;;11.60;99.90;;;;;;5060043;28;20294;-96
2021/09/02 10:36:46;;;;;;;7.00;3.13;;;11.60;99.90;;;;;;5060411;28;20554;-96
2021/09/02 10:39:45;;;;;;;5.93;3.37;;;11.60;99.90;;;;;;5060776;28;20235;-96
2021/09/02 10:42:46;;;;;;;6.50;3.10;;;11.60;99.90;;;;;;5058782;28;20286;-96
2021/09/02 10:45:33;;;;;;;4.43;3.13;;;11.60;99.90;;;;;;5059900;28;20217;-96
2021/09/02 10:48:07;;;;;;;4.63;3.17;;;11.60;99.90;;;;;;5058926;28;20239;-96
2021/09/02 10:50:39;;;;;;;4.70;2.77;;;11.60;99.90;;;;;;5058974;28;20231;-96
2021/09/02 10:53:14;;;;;;;6.17;2.77;;;11.60;99.90;;;;;;5060189;28;20670;-96
2021/09/02 10:55:52;;;;;;;3.30;2.90;;;11.60;99.90;;;;;;5058565;28;20247;-95
2021/09/02 10:58:49;;;;;;;5.87;3.20;;;11.60;99.90;;;;;;5060240;28;20259;-96
2021/09/02 11:01:31;;;;;;;6.33;3.67;;;11.50;99.90;;;;;;5049948;28;20251;-96
2021/09/02 11:04:14;;;;;;;5.50;3.30;;;11.50;99.90;;;;;;5058999;28;20218;-96
2021/09/02 11:06:50;;;;;;;4.97;3.17;;;11.50;99.90;;;;;;5058692;28;20212;-95
2021/09/02 11:09:34;;;;;;;4.00;2.90;;;11.40;99.90;;;;;;5059754;28;20325;-96
2021/09/02 11:12:08;;;;;;;4.70;2.97;;;11.40;99.90;;;;;;5059016;28;20239;-95
2021/09/02 11:14:44;;;;;;;5.53;3.50;;;11.30;99.90;;;;;;5059819;28;20266;-95
2021/09/02 11:17:17;;;;;;;5.50;3.57;;;11.30;99.90;;;;;;5059631;28;20227;-96
2021/09/02 11:19:50;;;;;;;4.40;3.13;;;11.40;99.90;;;;;;5058635;28;20208;-96
2021/09/02 11:22:21;;;;;;;5.13;3.50;;;11.30;99.90;;;;;;5057695;28;20193;-96
2021/09/02 11:24:55;;;;;;;6.23;3.50;;;11.20;99.90;;;;;;5059567;28;20275;-96
2021/09/02 11:27:31;;;;;;;8.10;3.27;;;11.20;99.90;;;;;;5058994;28;20295;-95
2021/09/02 11:30:17;;;;;;;5.63;3.37;;;11.20;99.90;;;;;;5058089;28;20261;-95
2021/09/02 11:32:56;;;;;;;4.53;3.10;;;11.20;99.90;;;;;;5057630;28;20203;-96
2021/09/02 11:35:27;;;;;;;4.87;2.87;;;11.20;99.90;;;;;;5059045;28;20204;-95
2021/09/02 11:37:59;;;;;;;5.93;3.17;;;11.20;99.90;;;;;;5059157;28;20319;-96
2021/09/02 11:40:34;;;;;;;4.97;2.67;;;11.20;99.90;;;;;;5060598;28;20273;-94
2021/09/02 11:43:06;;;;;;;5.63;3.60;;;11.20;99.90;;;;;;5073344;28;20204;-95
2021/09/02 11:45:38;;;;;;;7.07;3.43;;;11.20;99.90;;;;;;5077168;28;20207;-94
2021/09/02 11:48:09;;;;;;;3.63;2.87;;;11.20;99.90;;;;;;5053224;28;20253;-96
2021/09/02 11:50:40;;;;;;;6.50;3.63;;;11.20;99.90;;;;;;5039528;28;20205;-96
2021/09/02 11:53:13;;;;;;;4.27;3.10;;;11.20;99.90;;;;;;5039773;28;20295;-96
2021/09/02 11:55:48;;;;;;;5.70;3.47;;;11.20;99.90;;;;;;5038900;28;20197;-95
2021/09/02 11:58:28;;;;;;;6.20;3.03;;;11.10;99.90;;;;;;5038259;28;20689;-95
2021/09/02 12:01:03;;;;;;;6.07;2.83;;;11.10;99.90;;;;;;5037945;28;20225;-96
2021/09/02 12:03:35;;;;;;;6.50;3.23;;;11.10;99.90;;;;;;5038349;28;20691;-95
2021/09/02 12:06:07;;;;;;;4.17;3.30;;;11.10;99.90;;;;;;5040264;28;20193;-94
2021/09/02 12:08:39;;;;;;;6.60;3.00;;;11.00;99.90;;;;;;5056549;28;20271;-94
2021/09/02 12:11:12;;;;;;;5.37;3.00;;;10.90;99.90;;;;;;5057673;28;20574;-93
2021/09/02 12:13:44;;;;;;;6.33;3.30;;;10.80;99.90;;;;;;5057638;28;20212;-95
2021/09/02 12:16:19;;;;;;;5.13;2.97;;;10.80;99.90;;;;;;5057166;28;20212;-94
2021/09/02 12:18:59;;;;;;;6.37;3.50;;;10.70;99.90;;;;;;5057336;28;20722;-95
2021/09/02 12:21:31;;;;;;;5.30;2.87;;;10.70;99.90;;;;;;5057024;28;20226;-94
2021/09/02 12:24:08;;;;;;;4.97;2.80;;;10.70;99.90;;;;;;5056184;28;20271;-96
2021/09/02 12:27:00;;;;;;;7.17;3.63;;;10.70;99.90;;;;;;5040811;28;20250;-95
2021/09/02 12:29:34;;;;;;;4.73;2.90;;;10.60;99.90;;;;;;5057944;28;20210;-94
2021/09/02 12:32:06;;;;;;;5.27;3.00;;;10.60;99.90;;;;;;5057553;28;20287;-93
2021/09/02 12:34:37;;;;;;;4.90;3.23;;;10.50;99.90;;;;;;5059047;28;20661;-96
2021/09/02 12:37:10;;;;;;;4.83;3.27;;;10.50;99.90;;;;;;5059001;28;20687;-96
2021/09/02 12:39:50;;;;;;;5.97;3.43;;;10.50;99.90;;;;;;5058595;28;20231;-96
2021/09/02 12:42:28;;;;;;;8.50;2.83;;;10.50;99.90;;;;;;5055443;28;20212;-96
2021/09/02 12:45:09;;;;;;;4.33;3.10;;;10.60;99.90;;;;;;5050043;28;20212;-95
2021/09/02 12:47:41;;;;;;;6.10;3.20;;;10.60;99.90;;;;;;5037098;28;20208;-95
2021/09/02 12:50:17;;;;;;;4.83;3.00;;;10.60;99.90;;;;;;5037715;28;20654;-95
2021/09/02 12:52:49;;;;;;;5.03;3.00;;;10.50;99.90;;;;;;5037050;28;20236;-95
2021/09/02 12:55:22;;;;;;;5.77;3.03;;;10.50;99.90;;;;;;5037383;28;20295;-96
2021/09/02 12:58:04;;;;;;;9.87;3.17;;;10.50;99.90;;;;;;5037220;28;20251;-94
2021/09/02 13:00:39;;;;;;;4.80;3.20;;;10.40;99.90;;;;;;5036737;28;20239;-96
2021/09/02 13:03:13;;;;;;;7.13;3.20;;;10.40;99.90;;;;;;5037807;28;20654;-95
2021/09/02 13:05:48;;;;;;;4.67;3.13;;;10.40;99.90;;;;;;5037870;28;20239;-95
2021/09/02 13:08:19;;;;;;;3.87;2.90;;;10.30;99.90;;;;;;5037704;28;20288;-93
2021/09/02 13:10:50;;;;;;;6.13;2.87;;;10.30;99.90;;;;;;5038411;28;20215;-93
2021/09/02 13:13:24;;;;;;;3.93;2.77;;;10.30;99.90;;;;;;5037022;28;20300;-94
2021/09/02 13:15:55;;;;;;;5.00;2.93;;;10.20;99.90;;;;;;5035918;28;20220;-94
2021/09/02 13:18:27;;;;;;;7.33;3.50;;;10.10;99.90;;;;;;5041522;28;20247;-94
2021/09/02 13:20:59;;;;;;;3.40;2.80;;;10.10;99.90;;;;;;5056172;28;20250;-95
2021/09/02 13:23:30;;;;;;;5.63;2.67;;;10.10;99.90;;;;;;5057573;28;20687;-94
2021/09/02 13:26:01;;;;;;;4.70;2.90;;;10.00;99.90;;;;;;5060086;28;20664;-95
2021/09/02 13:28:34;;;;;;;4.00;2.83;;;10.00;99.90;;;;;;5056702;28;20212;-95
2021/09/02 13:31:06;;;;;;;5.93;3.30;;;10.00;99.90;;;;;;5056946;28;20303;-95
2021/09/02 13:33:37;;;;;;;5.80;3.50;;;9.90;99.90;;;;;;5057705;28;20550;-95
2021/09/02 13:36:09;;;;;;;7.13;3.17;;;9.90;99.90;;;;;;5058029;28;20220;-96